Broome, Australia

8:17 AM AWST on April 30, 2017 (GMT +0800)
Broome International

Weather History for YBRM - October, 2012

Change the Weather History Date:

Saturday, October 20, 2012

  Actual Average Record
Temperature  
Mean Temperature 86 °F -  
Max Temperature 96 °F 92 °F - ()
Min Temperature 77 °F 75 °F - ()
Cooling Degree Days 22    
Growing Degree Days 36 (Base 50)    
Moisture  
Dew Point 68 °F    
Average Humidity 60    
Maximum Humidity 89    
Minimum Humidity 19    
Precipitation  
Precipitation 0.00 in 0.01 in - ()
Sea Level Pressure  
Sea Level Pressure 29.77 in    
Wind  
Wind Speed 8 mph ()    
Max Wind Speed 18 mph    
Max Gust Speed -    
Visibility 9.1 miles    
Events      
T = Trace of Precipitation, MM = Missing Value Source: Averaged Metar Reports

Daily Weather History Graph

Daily Weather History Graph

Search for Another Location

Airport or City:

Trip Planner

Search our weather history database for the weather conditions in past years. The results will help you decide how hot, cold, wet, or windy it might be!

Date:

Astronomy

Oct. 20, 2012 Rise Set
Actual Time 5:18 AM AWST 5:53 PM AWST
Civil Twilight 4:56 AM AWST 6:15 PM AWST
Nautical Twilight 4:30 AM AWST 6:41 PM AWST
Astronomical Twilight 4:04 AM AWST 7:07 PM AWST
Moon 9:26 AM AWST (10/20) 10:52 PM AWST (10/20)
Length of Visible Light 13h 18m
Length of Day
12h 34m
Waxing Crescent, 28% of the Moon is Illuminated
Oct 20
Waxing Crescent
Oct 22
First Quarter
Oct 30
Full
Nov 7
Last Quarter
Nov 14
New

Hourly Weather History & Observations

Time (AWST) Temp. Heat Index Dew Point Humidity Pressure Visibility Wind Dir Wind Speed Gust Speed Precip Events Conditions
12:00 AM 80.6 °F 86.2 °F 75.2 °F 84% 29.80 in 6.2 mi West 8.1 mph - N/A   Unknown
12:30 AM 80.6 °F 86.2 °F 75.2 °F 84% 29.83 in 6.2 mi SW 6.9 mph - N/A   Unknown
1:00 AM 78.8 °F - 75.2 °F 89% 29.80 in 6.2 mi WSW 8.1 mph - N/A   Unknown
1:30 AM 78.8 °F - 73.4 °F 83% 29.77 in 6.2 mi WSW 8.1 mph - N/A   Unknown
2:00 AM 80 °F - 74 °F 76% 29.78 in - WSW 6.9 mph - -  
2:00 AM 78.8 °F - 73.4 °F 83% 29.77 in 6.2 mi WSW 6.9 mph - N/A   Unknown
2:30 AM 78.8 °F - 73.4 °F 83% 29.77 in 6.2 mi Calm Calm - N/A   Unknown
3:00 AM 78 °F - 73 °F 82% 29.78 in - WSW 6.9 mph - -  
3:00 AM 78.8 °F - 73.4 °F 83% 29.77 in 6.2 mi WSW 6.9 mph - N/A   Unknown
3:30 AM 78.8 °F - 73.4 °F 83% 29.77 in 6.2 mi WSW 4.6 mph - N/A   Unknown
4:00 AM 78.8 °F - 73.4 °F 83% 29.77 in 6.2 mi WSW 3.5 mph - N/A   Unknown
4:30 AM 78.8 °F - 73.4 °F 83% 29.77 in 6.2 mi WSW 4.6 mph - N/A   Unknown
5:00 AM 78 °F - 73 °F 79% 29.79 in - West 4.6 mph - -  
5:00 AM 77.0 °F - 73.4 °F 89% 29.77 in 6.2 mi West 4.6 mph - N/A   Unknown
5:30 AM 78.8 °F - 73.4 °F 83% 29.77 in - WSW 4.6 mph - N/A   Clear
6:00 AM 80 °F - 74 °F 76% 29.81 in 9 mi WSW 3.5 mph - -   Haze
6:00 AM 80.6 °F 85.4 °F 73.4 °F 79% 29.80 in - WSW 3.5 mph - N/A   Clear
6:30 AM 82.4 °F 88.2 °F 73.4 °F 74% 29.80 in - SW 8.1 mph - N/A   Clear
7:00 AM 84.2 °F 90.9 °F 73.4 °F 70% 29.80 in - SSW 8.1 mph - N/A   Clear
7:30 AM 84.2 °F 89.6 °F 71.6 °F 66% 29.83 in - South 8.1 mph - N/A   Clear
8:00 AM 85 °F - 67 °F 46% 29.83 in - South 8.1 mph - -  
8:00 AM 84.2 °F 87.3 °F 68.0 °F 58% 29.83 in - South 8.1 mph - N/A   Clear
8:30 AM 87.8 °F 87.1 °F 59.0 °F 38% 29.83 in - South 9.2 mph - N/A   Clear
9:00 AM 89 °F - 53 °F 20% 29.83 in 19 mi South 10.4 mph - -   Haze
9:00 AM 89.6 °F 87.3 °F 53.6 °F 29% 29.83 in - South 10.4 mph - N/A   Clear
9:30 AM 91.4 °F - 51.8 °F 26% 29.80 in - South 8.1 mph - N/A   Clear
10:00 AM 95.0 °F - 46.4 °F 19% 29.80 in - SSW 9.2 mph - N/A   Clear
10:30 AM 95.0 °F - 48.2 °F 20% 29.80 in - SW 10.4 mph - N/A   Clear
11:00 AM 94 °F - 67 °F 31% 29.79 in - WSW 11.5 mph - -  
11:00 AM 93.2 °F 96.2 °F 66.2 °F 41% 29.77 in - WSW 11.5 mph - N/A   Clear
11:30 AM 93.2 °F 98.8 °F 69.8 °F 46% 29.77 in - West 12.7 mph - N/A   Clear
12:00 PM 92 °F - 70 °F 39% 29.77 in 19 mi WSW 12.7 mph - -   Haze
12:00 PM 93.2 °F 98.8 °F 69.8 °F 46% 29.77 in - WSW 12.7 mph - N/A   Clear
12:30 PM 91.4 °F 96.8 °F 69.8 °F 49% 29.74 in - WSW 15.0 mph - N/A   Clear
1:00 PM 91.4 °F 96.8 °F 69.8 °F 49% 29.74 in - WSW 13.8 mph - N/A   Clear
1:30 PM 91.4 °F 94.0 °F 66.2 °F 43% 29.71 in - WSW 17.3 mph - N/A   Clear
2:00 PM 92 °F - 63 °F 28% 29.72 in - WSW 18.4 mph - -  
2:00 PM 93.2 °F 94.1 °F 62.6 °F 36% 29.71 in - WSW 18.4 mph - N/A   Clear
2:30 PM 93.2 °F 94.1 °F 62.6 °F 36% 29.71 in - WSW 13.8 mph - N/A   Clear
3:00 PM 93 °F - 60 °F 23% 29.70 in 19 mi WSW 16.1 mph - -   Smoke
3:00 PM 93.2 °F 92.6 °F 59.0 °F 32% 29.68 in - WSW 16.1 mph - N/A   Clear
3:30 PM 91.4 °F 92.1 °F 62.6 °F 38% 29.68 in - WSW 16.1 mph - N/A   Clear
4:00 PM 89.6 °F 90.1 °F 62.6 °F 40% 29.68 in - WSW 17.3 mph - N/A   Clear
4:30 PM 87.8 °F 90.4 °F 66.2 °F 49% 29.68 in - WSW 15.0 mph - N/A   Clear
5:00 PM 87 °F - 67 °F 41% 29.71 in - WSW 17.3 mph - -  
5:00 PM 87.8 °F 90.4 °F 66.2 °F 49% 29.71 in - WSW 17.3 mph - N/A   Clear
5:30 PM 86.0 °F 88.2 °F 66.2 °F 51% 29.71 in - WSW 13.8 mph - N/A   Clear
6:00 PM 85 °F - 69 °F 51% 29.73 in 19 mi SW 13.8 mph - -   Smoke
6:00 PM 86.0 °F 90.4 °F 69.8 °F 58% 29.71 in - SW 13.8 mph - N/A   Clear
6:30 PM 84.2 °F 88.4 °F 69.8 °F 62% 29.71 in 6.2 mi WSW 11.5 mph - N/A   Unknown
7:00 PM 84.2 °F 89.6 °F 71.6 °F 66% 29.74 in - WSW 12.7 mph - N/A   Clear
7:30 PM 82.4 °F 90.9 °F 77.0 °F 84% 29.77 in - NNW 4.6 mph - N/A   Clear
8:00 PM 82 °F - 73 °F 67% 29.79 in - NW 4.6 mph - -  
8:00 PM 82.4 °F 88.2 °F 73.4 °F 74% 29.77 in - NW 4.6 mph - N/A   Clear
8:30 PM 80.6 °F 85.4 °F 73.4 °F 79% 29.80 in - North 4.6 mph - N/A   Clear
9:00 PM 80 °F - 73 °F 73% 29.81 in 19 mi North 5.8 mph - -   Smoke
9:00 PM 80.6 °F 85.4 °F 73.4 °F 79% 29.80 in - North 5.8 mph - N/A   Clear
9:30 PM 80.6 °F 83.9 °F 69.8 °F 70% 29.80 in 6.2 mi North 8.1 mph - N/A   Unknown
10:00 PM 78.8 °F - 68.0 °F 69% 29.80 in 6.2 mi North 8.1 mph - N/A   Unknown
10:30 PM 77.0 °F - 68.0 °F 74% 29.80 in 6.2 mi North 6.9 mph - N/A   Unknown
11:00 PM 77 °F - 68 °F 67% 29.82 in - North 5.8 mph - -  
11:00 PM 77.0 °F - 68.0 °F 74% 29.80 in 6.2 mi North 5.8 mph - N/A   Unknown
11:30 PM 77.0 °F - 68.0 °F 74% 29.80 in 6.2 mi North 4.6 mph - N/A   Unknown